Terminal Aerodrome Forecast
Issued by NWS Lake Charles, LA

Home | Current Version | Previous Version | Text Only | Print | Product List | Glossary On
Versions: 1 2 3 4 5 6 7 8 9 10 11 12 13 14 15
000
FTUS44 KLCH 301100 RRA
TAFLFT
TAF
KLFT 301143Z 3012/3112 12005KT P6SM -RA SCT025 OVC120
      TEMPO 3012/3015 4SM -SHRA BR SCT025 BKN040
     FM301500 18008KT 4SM -SHRA BR BKN025 OVC040
     FM301800 19009KT P6SM VCTS BKN025CB
      TEMPO 3018/3021 4SM -TSRA
     FM302100 18007KT P6SM -SHRA OVC025
      TEMPO 3021/3024 P6SM -TSRA BKN025CB
     FM310000 18005KT P6SM OVC025=

USA.gov is the U.S. government's official web portal to all federal, state and local government web resources and services.